EDT,Max TemperatureF,Mean TemperatureF,Min TemperatureF,Max Dew PointF,MeanDew PointF,Min DewpointF,Max Humidity, Mean Humidity, Min Humidity, Max Sea Level PressureIn, Mean Sea Level PressureIn, Min Sea Level PressureIn, Max VisibilityMiles, Mean VisibilityMiles, Min VisibilityMiles, Max Wind SpeedMPH, Mean Wind SpeedMPH, Max Gust SpeedMPH,PrecipitationIn, CloudCover, Events, WindDirDegrees
2011-10-1,55,48,40,40,37,34,89,68,46,30.20,30.08,29.97,10,10,5,23,13,30,0.05,6,Rain,342
2011-10-2,62,50,37,40,34,27,92,60,27,30.19,30.12,30.04,10,10,10,23,10,29,0.00,2,,331
2011-10-3,69,58,47,52,44,38,86,62,37,30.20,30.12,30.07,10,10,10,16,7,21,0.00,6,,334
2011-10-4,74,61,47,52,47,40,100,65,29,30.30,30.24,30.20,10,8,0,8,2,13,0.00,2,Fog,296
2011-10-5,78,61,44,51,46,43,93,61,29,30.31,30.26,30.22,10,10,8,9,2,12,0.00,0,,155
2011-10-6,80,67,53,57,50,45,100,66,32,30.34,30.30,30.27,10,8,4,5,1,6,0.00,0,,90
2011-10-7,80,64,48,57,51,46,100,68,36,30.41,30.36,30.31,10,6,2,10,2,13,0.00,0,,111
2011-10-8,82,65,47,57,50,46,100,68,35,30.42,30.37,30.33,10,4,0,8,2,12,0.00,0,Fog,169
2011-10-9,80,65,49,55,51,46,100,65,30,30.42,30.36,30.30,10,5,1,10,2,13,0.00,0,,101
2011-10-10,75,63,51,55,52,49,96,70,44,30.30,30.23,30.14,10,8,3,9,3,13,0.00,0,,110
2011-10-11,80,64,48,55,50,43,100,64,28,30.13,30.07,30.00,10,7,2,10,2,16,0.00,0,,108
2011-10-12,64,59,53,57,54,52,100,86,72,29.97,29.85,29.74,10,8,2,10,2,13,0.01,6,Rain,75
2011-10-13,68,60,51,59,55,51,100,84,68,29.73,29.60,29.41,10,4,0,10,2,14,0.06,7,Fog-Rain,169
2011-10-14,60,54,47,57,48,36,93,68,43,29.60,29.45,29.37,10,9,2,30,16,38,0.04,7,Rain,258
2011-10-15,60,54,47,43,36,31,86,61,36,29.86,29.69,29.58,10,10,10,36,20,47,0.00,4,,253
2011-10-16,53,49,45,49,42,35,93,74,54,29.89,29.79,29.70,10,9,2,15,9,21,0.16,5,Rain,235
2011-10-17,61,52,42,39,32,24,76,51,25,29.83,29.80,29.75,10,10,10,28,14,33,0.00,0,,247
2011-10-18,51,47,43,45,39,32,93,72,50,29.84,29.81,29.78,10,10,8,13,5,14,0.07,4,Rain,267
2011-10-19,50,48,46,48,46,43,93,90,86,29.75,29.45,29.13,8,4,2,31,15,37,1.84,8,Rain,30
2011-10-20,49,47,44,48,44,39,100,92,83,29.74,29.27,29.04,10,6,2,25,12,33,0.17,8,Rain,300
2011-10-21,49,43,36,41,39,36,85,76,66,30.10,29.98,29.76,10,10,10,17,8,23,0.00,7,,270
2011-10-22,58,44,30,38,32,28,100,70,39,30.14,30.10,30.07,10,7,1,16,4,20,0.00,0,,233
2011-10-23,64,49,34,45,39,33,100,72,43,30.07,30.01,29.94,10,10,7,18,6,24,0.00,1,,195
2011-10-24,62,52,41,50,43,32,93,64,35,30.15,29.98,29.87,10,10,3,23,9,28,0.21,4,Rain,256
2011-10-25,68,53,37,44,37,34,92,61,29,30.18,30.04,29.83,10,10,10,21,7,29,0.05,3,,202
2011-10-26,60,53,46,52,48,44,96,84,72,29.87,29.81,29.76,10,8,2,15,6,21,0.26,7,Rain,4
2011-10-27,48,41,33,45,39,33,92,79,65,30.14,29.94,29.85,10,10,5,18,7,23,0.11,7,Rain,352
2011-10-28,51,40,29,36,31,28,100,71,41,30.23,30.16,30.12,10,9,4,8,2,12,0.00,2,,251
2011-10-29,50,40,29,37,32,28,100,81,61,30.15,30.09,30.04,10,4,0,28,2,33,0.06,3,Fog-Rain,220
2011-10-30,52,39,26,37,29,25,100,71,41,30.26,30.18,30.13,10,4,0,15,4,21,T,2,Fog-Rain,182
2011-10-31,50,42,33,43,37,30,100,77,53,30.20,30.09,30.04,10,9,2,14,5,18,0.07,6,Rain,190